sensor_id;sensor_type;location;lat;lon;timestamp;pressure;altitude;pressure_sealevel;temperature;humidity
57572;BME280;44459;43.522;24.470;2023-02-04T00:01:16;100002.69;;;2.66;100.00
57572;BME280;44459;43.522;24.470;2023-02-04T00:03:41;100010.50;;;2.66;100.00
57572;BME280;44459;43.522;24.470;2023-02-04T00:06:07;100000.91;;;2.65;100.00
57572;BME280;44459;43.522;24.470;2023-02-04T00:08:32;99993.06;;;2.64;100.00
57572;BME280;44459;43.522;24.470;2023-02-04T00:10:57;99995.66;;;2.64;100.00
57572;BME280;44459;43.522;24.470;2023-02-04T00:13:23;99981.66;;;2.60;100.00
57572;BME280;44459;43.522;24.470;2023-02-04T00:15:48;99979.09;;;2.62;100.00
57572;BME280;44459;43.522;24.470;2023-02-04T00:18:14;99963.34;;;2.59;100.00
57572;BME280;44459;43.522;24.470;2023-02-04T00:20:39;99950.25;;;2.57;100.00
57572;BME280;44459;43.522;24.470;2023-02-04T00:23:05;99945.06;;;2.57;100.00
57572;BME280;44459;43.522;24.470;2023-02-04T00:25:30;99940.81;;;2.61;100.00
57572;BME280;44459;43.522;24.470;2023-02-04T00:27:55;99928.44;;;2.53;100.00
57572;BME280;44459;43.522;24.470;2023-02-04T00:30:21;99927.59;;;2.53;100.00
57572;BME280;44459;43.522;24.470;2023-02-04T00:32:46;99925.78;;;2.52;100.00
57572;BME280;44459;43.522;24.470;2023-02-04T00:35:12;99916.19;;;2.51;100.00
57572;BME280;44459;43.522;24.470;2023-02-04T00:37:37;99929.22;;;2.51;100.00
57572;BME280;44459;43.522;24.470;2023-02-04T00:40:03;99924.03;;;2.51;100.00
57572;BME280;44459;43.522;24.470;2023-02-04T00:42:29;99922.13;;;2.47;100.00
57572;BME280;44459;43.522;24.470;2023-02-04T00:44:54;99908.38;;;2.51;100.00
57572;BME280;44459;43.522;24.470;2023-02-04T00:47:20;99911.94;;;2.53;100.00
57572;BME280;44459;43.522;24.470;2023-02-04T00:49:45;99893.59;;;2.50;100.00
57572;BME280;44459;43.522;24.470;2023-02-04T00:52:10;99878.91;;;2.52;100.00
57572;BME280;44459;43.522;24.470;2023-02-04T00:54:36;99878.91;;;2.52;100.00
57572;BME280;44459;43.522;24.470;2023-02-04T00:57:01;99870.22;;;2.51;100.00
57572;BME280;44459;43.522;24.470;2023-02-04T00:59:27;99876.31;;;2.52;100.00
57572;BME280;44459;43.522;24.470;2023-02-04T01:01:52;99861.50;;;2.51;100.00
57572;BME280;44459;43.522;24.470;2023-02-04T01:04:18;99854.56;;;2.51;100.00
57572;BME280;44459;43.522;24.470;2023-02-04T01:06:43;99861.59;;;2.54;100.00
57572;BME280;44459;43.522;24.470;2023-02-04T01:09:08;99864.28;;;2.57;100.00
57572;BME280;44459;43.522;24.470;2023-02-04T01:11:34;99851.16;;;2.52;100.00
57572;BME280;44459;43.522;24.470;2023-02-04T01:14:00;99859.97;;;2.58;100.00
57572;BME280;44459;43.522;24.470;2023-02-04T01:16:26;99862.56;;;2.58;100.00
57572;BME280;44459;43.522;24.470;2023-02-04T01:18:51;99860.84;;;2.57;100.00
57572;BME280;44459;43.522;24.470;2023-02-04T01:21:20;99852.16;;;2.58;100.00
57572;BME280;44459;43.522;24.470;2023-02-04T01:23:46;99854.00;;;2.60;100.00
57572;BME280;44459;43.522;24.470;2023-02-04T01:26:11;99862.00;;;2.66;100.00
57572;BME280;44459;43.522;24.470;2023-02-04T01:28:36;99847.19;;;2.65;100.00
57572;BME280;44459;43.522;24.470;2023-02-04T01:31:02;99829.69;;;2.61;100.00
57572;BME280;44459;43.522;24.470;2023-02-04T01:33:27;99836.94;;;2.71;100.00
57572;BME280;44459;43.522;24.470;2023-02-04T01:35:54;99837.91;;;2.73;100.00
57572;BME280;44459;43.522;24.470;2023-02-04T01:38:19;99815.28;;;2.72;100.00
57572;BME280;44459;43.522;24.470;2023-02-04T01:40:45;99813.50;;;2.71;100.00
57572;BME280;44459;43.522;24.470;2023-02-04T01:43:11;99812.84;;;2.78;100.00
57572;BME280;44459;43.522;24.470;2023-02-04T01:45:37;99813.88;;;2.83;100.00
57572;BME280;44459;43.522;24.470;2023-02-04T01:48:03;99804.38;;;2.85;100.00
57572;BME280;44459;43.522;24.470;2023-02-04T01:50:30;99801.03;;;2.89;100.00
57572;BME280;44459;43.522;24.470;2023-02-04T01:52:56;99782.78;;;2.89;100.00
57572;BME280;44459;43.522;24.470;2023-02-04T01:55:26;99788.16;;;2.95;100.00
57572;BME280;44459;43.522;24.470;2023-02-04T01:57:52;99779.59;;;2.99;100.00
57572;BME280;44459;43.522;24.470;2023-02-04T02:00:30;99780.63;;;3.04;100.00
57572;BME280;44459;43.522;24.470;2023-02-04T02:02:57;99770.06;;;3.00;100.00
57572;BME280;44459;43.522;24.470;2023-02-04T02:05:30;99771.09;;;3.05;100.00
57572;BME280;44459;43.522;24.470;2023-02-04T02:07:58;99767.59;;;3.04;100.00
57572;BME280;44459;43.522;24.470;2023-02-04T02:10:24;99758.88;;;3.04;100.00
57572;BME280;44459;43.522;24.470;2023-02-04T02:12:51;99763.34;;;3.08;100.00
57572;BME280;44459;43.522;24.470;2023-02-04T02:15:17;99759.00;;;3.09;100.00
57572;BME280;44459;43.522;24.470;2023-02-04T02:17:43;99767.75;;;3.11;100.00
57572;BME280;44459;43.522;24.470;2023-02-04T02:20:11;99764.22;;;3.09;100.00
57572;BME280;44459;43.522;24.470;2023-02-04T02:22:44;99772.81;;;3.04;100.00
57572;BME280;44459;43.522;24.470;2023-02-04T02:25:13;99772.44;;;2.92;100.00
57572;BME280;44459;43.522;24.470;2023-02-04T02:27:39;99767.00;;;2.85;100.00
57572;BME280;44459;43.522;24.470;2023-02-04T02:30:05;99754.06;;;2.88;100.00
57572;BME280;44459;43.522;24.470;2023-02-04T02:32:32;99755.97;;;2.93;100.00
57572;BME280;44459;43.522;24.470;2023-02-04T02:34:58;99749.44;;;3.09;100.00
57572;BME280;44459;43.522;24.470;2023-02-04T02:37:24;99745.69;;;3.31;100.00
57572;BME280;44459;43.522;24.470;2023-02-04T02:39:49;99750.38;;;3.42;100.00
57572;BME280;44459;43.522;24.470;2023-02-04T02:42:16;99737.63;;;3.53;100.00
57572;BME280;44459;43.522;24.470;2023-02-04T02:44:44;99727.13;;;3.51;100.00
57572;BME280;44459;43.522;24.470;2023-02-04T02:47:15;99723.75;;;3.55;100.00
57572;BME280;44459;43.522;24.470;2023-02-04T02:49:41;99728.41;;;3.67;100.00
57572;BME280;44459;43.522;24.470;2023-02-04T02:52:12;99726.84;;;3.75;100.00
57572;BME280;44459;43.522;24.470;2023-02-04T02:54:38;99719.13;;;3.78;100.00
57572;BME280;44459;43.522;24.470;2023-02-04T02:57:13;99724.50;;;3.86;100.00
57572;BME280;44459;43.522;24.470;2023-02-04T02:59:40;99720.09;;;3.83;100.00
57572;BME280;44459;43.522;24.470;2023-02-04T03:02:06;99707.88;;;3.82;100.00
57572;BME280;44459;43.522;24.470;2023-02-04T03:04:37;99717.56;;;3.86;100.00
57572;BME280;44459;43.522;24.470;2023-02-04T03:07:05;99709.72;;;3.85;100.00
57572;BME280;44459;43.522;24.470;2023-02-04T03:09:32;99714.94;;;3.85;100.00
57572;BME280;44459;43.522;24.470;2023-02-04T03:11:57;99709.78;;;3.88;100.00
57572;BME280;44459;43.522;24.470;2023-02-04T03:14:23;99705.53;;;3.93;100.00
57572;BME280;44459;43.522;24.470;2023-02-04T03:16:51;99701.06;;;3.89;100.00
57572;BME280;44459;43.522;24.470;2023-02-04T03:19:17;99705.59;;;3.94;100.00
57572;BME280;44459;43.522;24.470;2023-02-04T03:21:43;99697.81;;;3.97;100.00
57572;BME280;44459;43.522;24.470;2023-02-04T03:24:09;99692.56;;;3.96;100.00
57572;BME280;44459;43.522;24.470;2023-02-04T03:26:35;99689.94;;;3.96;100.00
57572;BME280;44459;43.522;24.470;2023-02-04T03:29:00;99697.81;;;3.97;100.00
57572;BME280;44459;43.522;24.470;2023-02-04T03:31:26;99694.25;;;3.94;100.00
57572;BME280;44459;43.522;24.470;2023-02-04T03:33:51;99690.69;;;3.90;100.00
57572;BME280;44459;43.522;24.470;2023-02-04T03:36:17;99698.53;;;3.90;100.00
57572;BME280;44459;43.522;24.470;2023-02-04T03:38:42;99685.41;;;3.89;100.00
57572;BME280;44459;43.522;24.470;2023-02-04T03:41:08;99694.13;;;3.88;100.00
57572;BME280;44459;43.522;24.470;2023-02-04T03:43:33;99684.47;;;3.85;100.00
57572;BME280;44459;43.522;24.470;2023-02-04T03:45:59;99679.34;;;3.88;100.00
57572;BME280;44459;43.522;24.470;2023-02-04T03:48:24;99663.69;;;3.88;100.00
57572;BME280;44459;43.522;24.470;2023-02-04T03:50:49;99663.75;;;3.93;100.00
57572;BME280;44459;43.522;24.470;2023-02-04T03:53:15;99643.75;;;3.93;100.00
57572;BME280;44459;43.522;24.470;2023-02-04T03:55:40;99638.59;;;3.96;100.00
57572;BME280;44459;43.522;24.470;2023-02-04T03:58:06;99643.75;;;3.93;100.00
57572;BME280;44459;43.522;24.470;2023-02-04T04:00:31;99635.03;;;3.91;100.00
57572;BME280;44459;43.522;24.470;2023-02-04T04:02:58;99634.06;;;3.88;100.00
57572;BME280;44459;43.522;24.470;2023-02-04T04:05:24;99632.41;;;3.91;100.00
57572;BME280;44459;43.522;24.470;2023-02-04T04:07:50;99632.41;;;3.91;100.00
57572;BME280;44459;43.522;24.470;2023-02-04T04:10:15;99639.53;;;3.98;100.00
57572;BME280;44459;43.522;24.470;2023-02-04T04:12:41;99628.22;;;3.98;100.00
57572;BME280;44459;43.522;24.470;2023-02-04T04:15:07;99629.09;;;3.98;100.00
57572;BME280;44459;43.522;24.470;2023-02-04T04:17:32;99612.59;;;4.01;100.00
57572;BME280;44459;43.522;24.470;2023-02-04T04:19:58;99622.34;;;4.08;100.00
57572;BME280;44459;43.522;24.470;2023-02-04T04:22:23;99618.72;;;4.01;100.00
57572;BME280;44459;43.522;24.470;2023-02-04T04:24:49;99617.06;;;4.05;100.00
57572;BME280;44459;43.522;24.470;2023-02-04T04:27:14;99617.94;;;4.05;100.00
57572;BME280;44459;43.522;24.470;2023-02-04T04:29:39;99617.06;;;4.06;100.00
57572;BME280;44459;43.522;24.470;2023-02-04T04:32:05;99617.94;;;4.05;100.00
57572;BME280;44459;43.522;24.470;2023-02-04T04:34:30;99616.28;;;4.11;100.00
57572;BME280;44459;43.522;24.470;2023-02-04T04:36:56;99625.19;;;4.19;99.91
57572;BME280;44459;43.522;24.470;2023-02-04T04:39:21;99626.16;;;4.24;99.28
57572;BME280;44459;43.522;24.470;2023-02-04T04:41:46;99636.69;;;4.27;99.33
57572;BME280;44459;43.522;24.470;2023-02-04T04:44:12;99634.84;;;4.23;100.00
57572;BME280;44459;43.522;24.470;2023-02-04T04:46:37;99640.84;;;4.19;100.00
57572;BME280;44459;43.522;24.470;2023-02-04T04:49:05;99643.53;;;4.22;100.00
57572;BME280;44459;43.522;24.470;2023-02-04T04:51:30;99641.75;;;4.19;100.00
57572;BME280;44459;43.522;24.470;2023-02-04T04:53:57;99643.56;;;4.23;100.00
57572;BME280;44459;43.522;24.470;2023-02-04T04:56:23;99656.72;;;4.28;99.82
57572;BME280;44459;43.522;24.470;2023-02-04T04:58:48;99652.31;;;4.25;100.00
57572;BME280;44459;43.522;24.470;2023-02-04T05:01:13;99654.03;;;4.25;100.00
57572;BME280;44459;43.522;24.470;2023-02-04T05:03:39;99657.66;;;4.31;100.00
57572;BME280;44459;43.522;24.470;2023-02-04T05:06:04;99652.44;;;4.31;100.00
57572;BME280;44459;43.522;24.470;2023-02-04T05:08:30;99653.19;;;4.26;100.00
57572;BME280;44459;43.522;24.470;2023-02-04T05:10:55;99650.66;;;4.29;100.00
57572;BME280;44459;43.522;24.470;2023-02-04T05:13:20;99668.94;;;4.29;100.00
57572;BME280;44459;43.522;24.470;2023-02-04T05:15:49;99658.38;;;4.24;100.00
57572;BME280;44459;43.522;24.470;2023-02-04T05:18:14;99656.78;;;4.31;100.00
57572;BME280;44459;43.522;24.470;2023-02-04T05:20:40;99654.97;;;4.27;100.00
57572;BME280;44459;43.522;24.470;2023-02-04T05:23:05;99670.72;;;4.31;100.00
57572;BME280;44459;43.522;24.470;2023-02-04T05:25:31;99665.56;;;4.33;100.00
57572;BME280;44459;43.522;24.470;2023-02-04T05:27:56;99666.31;;;4.29;100.00
57572;BME280;44459;43.522;24.470;2023-02-04T05:30:21;99667.94;;;4.24;100.00
57572;BME280;44459;43.522;24.470;2023-02-04T05:32:47;99667.88;;;4.21;100.00
57572;BME280;44459;43.522;24.470;2023-02-04T05:35:12;99677.44;;;4.20;100.00
57572;BME280;44459;43.522;24.470;2023-02-04T05:37:38;99665.09;;;4.13;100.00
57572;BME280;44459;43.522;24.470;2023-02-04T05:40:03;99678.16;;;4.13;100.00
57572;BME280;44459;43.522;24.470;2023-02-04T05:42:29;99688.72;;;4.18;100.00
57572;BME280;44459;43.522;24.470;2023-02-04T05:44:54;99676.41;;;4.12;100.00
57572;BME280;44459;43.522;24.470;2023-02-04T05:47:20;99691.22;;;4.13;100.00
57572;BME280;44459;43.522;24.470;2023-02-04T05:49:45;99690.19;;;4.06;99.36
57572;BME280;44459;43.522;24.470;2023-02-04T05:52:11;99693.91;;;4.16;98.85
57572;BME280;44459;43.522;24.470;2023-02-04T05:54:36;99697.53;;;4.23;98.29
57572;BME280;44459;43.522;24.470;2023-02-04T05:57:02;99686.97;;;4.18;98.05
57572;BME280;44459;43.522;24.470;2023-02-04T05:59:27;99685.22;;;4.17;98.80
57572;BME280;44459;43.522;24.470;2023-02-04T06:01:54;99676.41;;;4.14;98.01
57572;BME280;44459;43.522;24.470;2023-02-04T06:04:19;99684.44;;;4.21;97.41
57572;BME280;44459;43.522;24.470;2023-02-04T06:06:45;99672.16;;;4.17;96.44
57572;BME280;44459;43.522;24.470;2023-02-04T06:09:10;99676.66;;;4.23;95.77
57572;BME280;44459;43.522;24.470;2023-02-04T06:11:36;99676.78;;;4.29;95.30
57572;BME280;44459;43.522;24.470;2023-02-04T06:14:01;99676.78;;;4.29;94.47
57572;BME280;44459;43.522;24.470;2023-02-04T06:16:27;99668.94;;;4.29;94.85
57572;BME280;44459;43.522;24.470;2023-02-04T06:18:52;99678.63;;;4.33;94.53
57572;BME280;44459;43.522;24.470;2023-02-04T06:21:18;99674.16;;;4.29;94.71
57572;BME280;44459;43.522;24.470;2023-02-04T06:23:43;99675.00;;;4.28;95.44
57572;BME280;44459;43.522;24.470;2023-02-04T06:26:09;99675.16;;;4.34;94.40
57572;BME280;44459;43.522;24.470;2023-02-04T06:28:34;99670.72;;;4.30;94.41
57572;BME280;44459;43.522;24.470;2023-02-04T06:31:00;99673.22;;;4.25;95.13
57572;BME280;44459;43.522;24.470;2023-02-04T06:33:25;99674.94;;;4.25;94.31
57572;BME280;44459;43.522;24.470;2023-02-04T06:35:50;99685.50;;;4.29;94.02
57572;BME280;44459;43.522;24.470;2023-02-04T06:38:16;99689.84;;;4.29;94.25
57572;BME280;44459;43.522;24.470;2023-02-04T06:40:42;99691.75;;;4.37;94.17
57572;BME280;44459;43.522;24.470;2023-02-04T06:43:07;99684.00;;;4.40;93.82
57572;BME280;44459;43.522;24.470;2023-02-04T06:45:34;99684.03;;;4.42;94.21
57572;BME280;44459;43.522;24.470;2023-02-04T06:48:00;99689.38;;;4.48;93.94
57572;BME280;44459;43.522;24.470;2023-02-04T06:50:25;99691.16;;;4.49;94.38
57572;BME280;44459;43.522;24.470;2023-02-04T06:52:51;99683.44;;;4.55;94.79
57572;BME280;44459;43.522;24.470;2023-02-04T06:55:16;99679.25;;;4.63;95.46
57572;BME280;44459;43.522;24.470;2023-02-04T06:57:42;99680.41;;;4.77;94.98
57572;BME280;44459;43.522;24.470;2023-02-04T07:00:09;99672.63;;;4.80;95.08
57572;BME280;44459;43.522;24.470;2023-02-04T07:02:36;99678.91;;;4.88;94.20
57572;BME280;44459;43.522;24.470;2023-02-04T07:05:03;99675.44;;;4.89;93.75
57572;BME280;44459;43.522;24.470;2023-02-04T07:07:28;99679.75;;;4.87;93.07
57572;BME280;44459;43.522;24.470;2023-02-04T07:09:54;99671.78;;;4.81;93.91
57572;BME280;44459;43.522;24.470;2023-02-04T07:12:19;99675.31;;;4.83;93.14
57572;BME280;44459;43.522;24.470;2023-02-04T07:14:45;99680.59;;;4.86;93.64
57572;BME280;44459;43.522;24.470;2023-02-04T07:17:10;99669.53;;;4.99;94.00
57572;BME280;44459;43.522;24.470;2023-02-04T07:19:36;99660.13;;;5.09;92.38
57572;BME280;44459;43.522;24.470;2023-02-04T07:22:02;99662.00;;;5.16;93.01
57572;BME280;44459;43.522;24.470;2023-02-04T07:24:28;99656.88;;;5.22;92.70
57572;BME280;44459;43.522;24.470;2023-02-04T07:26:53;99668.38;;;5.32;92.65
57572;BME280;44459;43.522;24.470;2023-02-04T07:29:19;99673.56;;;5.29;90.56
57572;BME280;44459;43.522;24.470;2023-02-04T07:31:45;99664.72;;;5.22;92.06
57572;BME280;44459;43.522;24.470;2023-02-04T07:34:13;99672.47;;;5.18;90.86
57572;BME280;44459;43.522;24.470;2023-02-04T07:36:39;99668.03;;;5.12;92.87
57572;BME280;44459;43.522;24.470;2023-02-04T07:39:05;99667.09;;;5.08;93.37
57572;BME280;44459;43.522;24.470;2023-02-04T07:41:31;99667.03;;;5.05;93.52
57572;BME280;44459;43.522;24.470;2023-02-04T07:43:56;99663.56;;;5.08;91.89
57572;BME280;44459;43.522;24.470;2023-02-04T07:46:22;99662.72;;;5.09;92.25
57572;BME280;44459;43.522;24.470;2023-02-04T07:48:47;99672.41;;;5.15;92.12
57572;BME280;44459;43.522;24.470;2023-02-04T07:51:12;99658.44;;;5.13;92.45
57572;BME280;44459;43.522;24.470;2023-02-04T07:53:38;99670.75;;;5.18;91.95
57572;BME280;44459;43.522;24.470;2023-02-04T07:56:03;99655.94;;;5.19;92.03
57572;BME280;44459;43.522;24.470;2023-02-04T07:58:29;99662.06;;;5.21;92.35
57572;BME280;44459;43.522;24.470;2023-02-04T08:00:54;99649.81;;;5.18;92.14
57572;BME280;44459;43.522;24.470;2023-02-04T08:03:20;99653.22;;;5.14;92.31
57572;BME280;44459;43.522;24.470;2023-02-04T08:05:45;99664.72;;;5.22;92.42
57572;BME280;44459;43.522;24.470;2023-02-04T08:08:10;99656.16;;;5.31;90.99
57572;BME280;44459;43.522;24.470;2023-02-04T08:10:36;99662.34;;;5.34;89.50
57572;BME280;44459;43.522;24.470;2023-02-04T08:13:02;99667.72;;;5.45;89.90
57572;BME280;44459;43.522;24.470;2023-02-04T08:15:27;99668.59;;;5.45;90.52
57572;BME280;44459;43.522;24.470;2023-02-04T08:17:52;99662.56;;;5.48;90.72
57572;BME280;44459;43.522;24.470;2023-02-04T08:20:18;99672.22;;;5.52;89.82
57572;BME280;44459;43.522;24.470;2023-02-04T08:22:44;99679.25;;;5.54;89.81
57572;BME280;44459;43.522;24.470;2023-02-04T08:25:10;99666.97;;;5.52;89.73
57572;BME280;44459;43.522;24.470;2023-02-04T08:27:36;99666.16;;;5.54;90.22
57572;BME280;44459;43.522;24.470;2023-02-04T08:30:03;99663.59;;;5.59;90.43
57572;BME280;44459;43.522;24.470;2023-02-04T08:32:28;99675.94;;;5.65;87.01
57572;BME280;44459;43.522;24.470;2023-02-04T08:34:56;99672.63;;;5.76;88.60
57572;BME280;44459;43.522;24.470;2023-02-04T08:37:21;99673.59;;;5.81;87.27
57572;BME280;44459;43.522;24.470;2023-02-04T08:39:47;99667.38;;;5.75;87.29
57572;BME280;44459;43.522;24.470;2023-02-04T08:42:13;99673.50;;;5.77;87.61
57572;BME280;44459;43.522;24.470;2023-02-04T08:44:40;99666.63;;;5.83;86.92
57572;BME280;44459;43.522;24.470;2023-02-04T08:47:05;99668.38;;;5.84;87.07
57572;BME280;44459;43.522;24.470;2023-02-04T08:49:31;99666.72;;;5.86;87.99
57572;BME280;44459;43.522;24.470;2023-02-04T08:51:57;99671.88;;;5.85;86.58
57572;BME280;44459;43.522;24.470;2023-02-04T08:54:22;99676.38;;;5.90;87.97
57572;BME280;44459;43.522;24.470;2023-02-04T08:56:49;99678.22;;;5.96;86.84
57572;BME280;44459;43.522;24.470;2023-02-04T08:59:15;99679.03;;;5.92;87.27
57572;BME280;44459;43.522;24.470;2023-02-04T09:01:40;99676.41;;;5.92;87.83
57572;BME280;44459;43.522;24.470;2023-02-04T09:04:06;99684.38;;;6.01;86.58
57572;BME280;44459;43.522;24.470;2023-02-04T09:06:31;99680.03;;;6.01;86.00
57572;BME280;44459;43.522;24.470;2023-02-04T09:08:57;99678.13;;;5.91;85.83
57572;BME280;44459;43.522;24.470;2023-02-04T09:11:22;99680.00;;;5.97;87.05
57572;BME280;44459;43.522;24.470;2023-02-04T09:13:48;99681.81;;;6.04;85.61
57572;BME280;44459;43.522;24.470;2023-02-04T09:16:13;99683.66;;;6.11;85.31
57572;BME280;44459;43.522;24.470;2023-02-04T09:18:39;99683.09;;;6.32;86.90
57572;BME280;44459;43.522;24.470;2023-02-04T09:21:04;99691.97;;;6.38;82.38
57572;BME280;44459;43.522;24.470;2023-02-04T09:23:30;99676.31;;;6.44;84.14
57572;BME280;44459;43.522;24.470;2023-02-04T09:25:55;99686.94;;;6.55;84.11
57572;BME280;44459;43.522;24.470;2023-02-04T09:28:21;99685.34;;;6.68;83.42
57572;BME280;44459;43.522;24.470;2023-02-04T09:30:46;99695.16;;;6.82;82.93
57572;BME280;44459;43.522;24.470;2023-02-04T09:33:13;99687.38;;;6.91;82.77
57572;BME280;44459;43.522;24.470;2023-02-04T09:35:39;99685.59;;;6.89;80.84
57572;BME280;44459;43.522;24.470;2023-02-04T09:38:04;99675.28;;;7.04;83.18
57572;BME280;44459;43.522;24.470;2023-02-04T09:40:32;99674.53;;;7.16;80.81
57572;BME280;44459;43.522;24.470;2023-02-04T09:42:59;99697.34;;;7.21;78.75
57572;BME280;44459;43.522;24.470;2023-02-04T09:45:27;99683.41;;;7.27;79.25
57572;BME280;44459;43.522;24.470;2023-02-04T09:47:55;99662.47;;;7.31;78.43
57572;BME280;44459;43.522;24.470;2023-02-04T09:50:23;99677.41;;;7.38;76.37
57572;BME280;44459;43.522;24.470;2023-02-04T09:52:50;99680.13;;;7.49;79.26
57572;BME280;44459;43.522;24.470;2023-02-04T09:55:19;99675.78;;;7.54;76.14
57572;BME280;44459;43.522;24.470;2023-02-04T09:57:46;99668.84;;;7.59;77.05
57572;BME280;44459;43.522;24.470;2023-02-04T10:00:18;99672.38;;;7.64;76.71
57572;BME280;44459;43.522;24.470;2023-02-04T10:02:44;99664.53;;;7.69;79.08
57572;BME280;44459;43.522;24.470;2023-02-04T10:05:17;99666.34;;;7.73;77.47
57572;BME280;44459;43.522;24.470;2023-02-04T10:07:43;99668.88;;;7.65;76.73
57572;BME280;44459;43.522;24.470;2023-02-04T10:10:19;99663.59;;;7.60;77.43
57572;BME280;44459;43.522;24.470;2023-02-04T10:12:46;99665.50;;;7.78;78.64
57572;BME280;44459;43.522;24.470;2023-02-04T10:15:14;99653.31;;;7.89;78.00
57572;BME280;44459;43.522;24.470;2023-02-04T10:17:41;99661.34;;;8.10;77.37
57572;BME280;44459;43.522;24.470;2023-02-04T10:20:12;99655.25;;;8.12;75.33
57572;BME280;44459;43.522;24.470;2023-02-04T10:22:38;99656.25;;;8.29;77.29
57572;BME280;44459;43.522;24.470;2023-02-04T10:25:11;99651.03;;;8.41;75.28
57572;BME280;44459;43.522;24.470;2023-02-04T10:27:46;99661.56;;;8.39;73.98
57572;BME280;44459;43.522;24.470;2023-02-04T10:30:20;99646.47;;;8.13;75.23
57572;BME280;44459;43.522;24.470;2023-02-04T10:32:46;99651.69;;;8.06;74.32
57572;BME280;44459;43.522;24.470;2023-02-04T10:35:14;99650.81;;;8.09;75.07
57572;BME280;44459;43.522;24.470;2023-02-04T10:37:39;99652.66;;;8.21;75.07
57572;BME280;44459;43.522;24.470;2023-02-04T10:40:05;99643.06;;;8.26;76.65
57572;BME280;44459;43.522;24.470;2023-02-04T10:42:31;99652.69;;;8.25;73.16
57572;BME280;44459;43.522;24.470;2023-02-04T10:44:57;99646.53;;;8.19;73.83
57572;BME280;44459;43.522;24.470;2023-02-04T10:47:24;99642.22;;;8.28;76.90
57572;BME280;44459;43.522;24.470;2023-02-04T10:50:02;99631.78;;;8.48;76.00
57572;BME280;44459;43.522;24.470;2023-02-04T10:52:35;99632.66;;;8.45;74.77
57572;BME280;44459;43.522;24.470;2023-02-04T10:55:04;99622.16;;;8.48;76.69
57572;BME280;44459;43.522;24.470;2023-02-04T10:57:31;99637.84;;;8.32;73.61
57572;BME280;44459;43.522;24.470;2023-02-04T11:00:00;99623.75;;;8.22;76.51
57572;BME280;44459;43.522;24.470;2023-02-04T11:05:11;99635.19;;;8.26;77.23
57572;BME280;44459;43.522;24.470;2023-02-04T11:07:37;99629.91;;;8.26;75.25
57572;BME280;44459;43.522;24.470;2023-02-04T11:10:03;99632.50;;;8.23;76.51
57572;BME280;44459;43.522;24.470;2023-02-04T11:15:03;99628.06;;;8.08;75.95
57572;BME280;44459;43.522;24.470;2023-02-04T11:17:30;99634.13;;;7.99;76.41
57572;BME280;44459;43.522;24.470;2023-02-04T11:19:56;99630.44;;;7.75;75.35
57572;BME280;44459;43.522;24.470;2023-02-04T11:22:34;99631.28;;;7.72;76.69
57572;BME280;44459;43.522;24.470;2023-02-04T11:25:00;99630.44;;;7.78;79.43
57572;BME280;44459;43.522;24.470;2023-02-04T11:27:38;99633.97;;;7.77;77.58
57572;BME280;44459;43.522;24.470;2023-02-04T11:30:19;99644.56;;;7.90;77.40
57572;BME280;44459;43.522;24.470;2023-02-04T11:32:55;99627.16;;;8.09;78.04
57572;BME280;44459;43.522;24.470;2023-02-04T11:35:27;99641.25;;;8.16;75.68
57572;BME280;44459;43.522;24.470;2023-02-04T11:37:53;99634.22;;;8.15;78.92
57572;BME280;44459;43.522;24.470;2023-02-04T11:40:30;99634.19;;;8.10;77.12
57572;BME280;44459;43.522;24.470;2023-02-04T11:45:33;99636.91;;;8.22;77.99
57572;BME280;44459;43.522;24.470;2023-02-04T11:48:23;99626.44;;;8.30;78.55
57572;BME280;44459;43.522;24.470;2023-02-04T11:51:01;99630.94;;;8.52;77.09
57572;BME280;44459;43.522;24.470;2023-02-04T11:53:32;99628.38;;;8.64;76.98
57572;BME280;44459;43.522;24.470;2023-02-04T11:55:58;99630.88;;;8.41;76.12
57572;BME280;44459;43.522;24.470;2023-02-04T11:58:24;99626.53;;;8.48;76.92
57572;BME280;44459;43.522;24.470;2023-02-04T12:00:53;99621.34;;;8.63;76.46
57572;BME280;44459;43.522;24.470;2023-02-04T12:03:26;99624.84;;;8.59;76.19
57572;BME280;44459;43.522;24.470;2023-02-04T12:05:55;99624.84;;;8.56;76.83
57572;BME280;44459;43.522;24.470;2023-02-04T12:10:58;99620.22;;;8.17;75.43
57572;BME280;44459;43.522;24.470;2023-02-04T12:13:25;99618.38;;;8.04;74.66
57572;BME280;44459;43.522;24.470;2023-02-04T12:16:02;99624.47;;;7.98;75.49
57572;BME280;44459;43.522;24.470;2023-02-04T12:18:29;99617.50;;;8.03;77.67
57572;BME280;44459;43.522;24.470;2023-02-04T12:20:56;99620.16;;;8.08;77.71
57572;BME280;44459;43.522;24.470;2023-02-04T12:23:23;99615.81;;;8.15;76.22
57572;BME280;44459;43.522;24.470;2023-02-04T12:25:49;99622.72;;;7.97;75.79
57572;BME280;44459;43.522;24.470;2023-02-04T12:28:15;99629.53;;;7.71;76.59
57572;BME280;44459;43.522;24.470;2023-02-04T12:30:41;99615.47;;;7.60;76.76
57572;BME280;44459;43.522;24.470;2023-02-04T12:33:06;99618.00;;;7.52;77.31
57572;BME280;44459;43.522;24.470;2023-02-04T12:35:32;99624.03;;;7.41;78.15
57572;BME280;44459;43.522;24.470;2023-02-04T12:37:58;99617.94;;;7.46;79.11
57572;BME280;44459;43.522;24.470;2023-02-04T12:40:23;99618.72;;;7.32;79.98
57572;BME280;44459;43.522;24.470;2023-02-04T12:42:49;99612.56;;;7.31;78.01
57572;BME280;44459;43.522;24.470;2023-02-04T12:45:15;99631.69;;;7.20;78.02
57572;BME280;44459;43.522;24.470;2023-02-04T12:47:42;99623.84;;;7.20;78.43
57572;BME280;44459;43.522;24.470;2023-02-04T12:50:08;99628.16;;;7.13;79.21
57572;BME280;44459;43.522;24.470;2023-02-04T12:52:34;99623.94;;;7.29;78.97
57572;BME280;44459;43.522;24.470;2023-02-04T12:55:02;99624.09;;;7.45;78.35
57572;BME280;44459;43.522;24.470;2023-02-04T12:57:29;99625.91;;;7.52;78.75
57572;BME280;44459;43.522;24.470;2023-02-04T12:59:55;99631.13;;;7.51;77.79
57572;BME280;44459;43.522;24.470;2023-02-04T13:02:22;99626.78;;;7.54;78.81